sensor_id;sensor_type;location;lat;lon;timestamp;temperature;humidity
19680;DHT22;9989;48.962;9.182;2022-11-27T00:00:20;5.20;99.90
19680;DHT22;9989;48.962;9.182;2022-11-27T00:02:45;5.30;99.90
19680;DHT22;9989;48.962;9.182;2022-11-27T00:05:11;5.30;99.90
19680;DHT22;9989;48.962;9.182;2022-11-27T00:07:36;5.30;99.90
19680;DHT22;9989;48.962;9.182;2022-11-27T00:10:02;5.30;99.90
19680;DHT22;9989;48.962;9.182;2022-11-27T00:12:29;5.30;99.90
19680;DHT22;9989;48.962;9.182;2022-11-27T00:14:55;5.30;99.90
19680;DHT22;9989;48.962;9.182;2022-11-27T00:17:20;5.30;99.90
19680;DHT22;9989;48.962;9.182;2022-11-27T00:19:46;5.30;99.90
19680;DHT22;9989;48.962;9.182;2022-11-27T00:22:11;5.30;99.90
19680;DHT22;9989;48.962;9.182;2022-11-27T00:24:37;5.40;99.90
19680;DHT22;9989;48.962;9.182;2022-11-27T00:27:03;5.30;99.90
19680;DHT22;9989;48.962;9.182;2022-11-27T00:29:28;5.40;99.90
19680;DHT22;9989;48.962;9.182;2022-11-27T00:31:55;5.40;99.90
19680;DHT22;9989;48.962;9.182;2022-11-27T00:34:21;5.40;99.90
19680;DHT22;9989;48.962;9.182;2022-11-27T00:36:46;5.40;99.90
19680;DHT22;9989;48.962;9.182;2022-11-27T00:39:12;5.40;99.90
19680;DHT22;9989;48.962;9.182;2022-11-27T00:41:38;5.40;99.90
19680;DHT22;9989;48.962;9.182;2022-11-27T00:44:04;5.40;99.90
19680;DHT22;9989;48.962;9.182;2022-11-27T00:46:31;5.30;99.90
19680;DHT22;9989;48.962;9.182;2022-11-27T00:48:59;5.30;99.90
19680;DHT22;9989;48.962;9.182;2022-11-27T00:51:25;5.30;99.90
19680;DHT22;9989;48.962;9.182;2022-11-27T00:53:51;5.30;99.90
19680;DHT22;9989;48.962;9.182;2022-11-27T00:56:20;5.30;99.90
19680;DHT22;9989;48.962;9.182;2022-11-27T00:58:46;5.30;99.90
19680;DHT22;9989;48.962;9.182;2022-11-27T01:01:16;5.30;99.90
19680;DHT22;9989;48.962;9.182;2022-11-27T01:03:42;5.30;99.90
19680;DHT22;9989;48.962;9.182;2022-11-27T01:06:08;5.30;99.90
19680;DHT22;9989;48.962;9.182;2022-11-27T01:08:34;5.20;99.90
19680;DHT22;9989;48.962;9.182;2022-11-27T01:10:59;5.20;99.90
19680;DHT22;9989;48.962;9.182;2022-11-27T01:13:33;5.20;99.90
19680;DHT22;9989;48.962;9.182;2022-11-27T01:16:17;5.20;99.90
19680;DHT22;9989;48.962;9.182;2022-11-27T01:18:44;5.20;99.90
19680;DHT22;9989;48.962;9.182;2022-11-27T01:21:11;5.20;99.90
19680;DHT22;9989;48.962;9.182;2022-11-27T01:23:37;5.20;99.90
19680;DHT22;9989;48.962;9.182;2022-11-27T01:26:06;5.20;99.90
19680;DHT22;9989;48.962;9.182;2022-11-27T01:28:33;5.20;99.90
19680;DHT22;9989;48.962;9.182;2022-11-27T01:31:06;5.20;99.90
19680;DHT22;9989;48.962;9.182;2022-11-27T01:33:33;5.20;99.90
19680;DHT22;9989;48.962;9.182;2022-11-27T01:36:00;5.20;99.90
19680;DHT22;9989;48.962;9.182;2022-11-27T01:38:27;5.20;99.90
19680;DHT22;9989;48.962;9.182;2022-11-27T01:41:20;5.10;99.90
19680;DHT22;9989;48.962;9.182;2022-11-27T01:43:54;5.10;99.90
19680;DHT22;9989;48.962;9.182;2022-11-27T01:51:37;5.00;99.90
19680;DHT22;9989;48.962;9.182;2022-11-27T01:54:04;5.00;99.90
19680;DHT22;9989;48.962;9.182;2022-11-27T01:56:30;5.00;99.90
19680;DHT22;9989;48.962;9.182;2022-11-27T01:58:57;5.00;99.90
19680;DHT22;9989;48.962;9.182;2022-11-27T02:01:23;5.00;99.90
19680;DHT22;9989;48.962;9.182;2022-11-27T02:03:51;4.90;99.90
19680;DHT22;9989;48.962;9.182;2022-11-27T02:06:17;4.90;99.90
19680;DHT22;9989;48.962;9.182;2022-11-27T02:08:42;4.90;99.90
19680;DHT22;9989;48.962;9.182;2022-11-27T02:22:09;4.80;99.90
19680;DHT22;9989;48.962;9.182;2022-11-27T02:27:51;4.70;99.90
19680;DHT22;9989;48.962;9.182;2022-11-27T02:30:20;4.70;99.90
19680;DHT22;9989;48.962;9.182;2022-11-27T02:32:50;4.60;99.90
19680;DHT22;9989;48.962;9.182;2022-11-27T02:35:29;4.60;99.90
19680;DHT22;9989;48.962;9.182;2022-11-27T02:38:30;4.50;99.90
19680;DHT22;9989;48.962;9.182;2022-11-27T02:41:05;4.50;99.90
19680;DHT22;9989;48.962;9.182;2022-11-27T02:46:02;4.30;99.90
19680;DHT22;9989;48.962;9.182;2022-11-27T02:48:33;4.30;99.90
19680;DHT22;9989;48.962;9.182;2022-11-27T02:51:01;4.20;99.90
19680;DHT22;9989;48.962;9.182;2022-11-27T02:53:32;4.20;99.90
19680;DHT22;9989;48.962;9.182;2022-11-27T02:56:04;4.20;99.90
19680;DHT22;9989;48.962;9.182;2022-11-27T02:58:34;4.20;99.90
19680;DHT22;9989;48.962;9.182;2022-11-27T03:01:02;4.30;99.90
19680;DHT22;9989;48.962;9.182;2022-11-27T03:03:37;4.30;99.90
19680;DHT22;9989;48.962;9.182;2022-11-27T03:06:10;4.30;99.90
19680;DHT22;9989;48.962;9.182;2022-11-27T03:08:49;4.30;99.90
19680;DHT22;9989;48.962;9.182;2022-11-27T03:11:15;4.30;99.90
19680;DHT22;9989;48.962;9.182;2022-11-27T03:13:44;4.30;99.90
19680;DHT22;9989;48.962;9.182;2022-11-27T03:21:44;4.20;99.90
19680;DHT22;9989;48.962;9.182;2022-11-27T03:24:12;4.20;99.90
19680;DHT22;9989;48.962;9.182;2022-11-27T03:26:38;4.20;99.90
19680;DHT22;9989;48.962;9.182;2022-11-27T03:29:09;4.20;99.90
19680;DHT22;9989;48.962;9.182;2022-11-27T03:31:37;4.20;99.90
19680;DHT22;9989;48.962;9.182;2022-11-27T03:34:03;4.20;99.90
19680;DHT22;9989;48.962;9.182;2022-11-27T03:36:29;4.20;99.90
19680;DHT22;9989;48.962;9.182;2022-11-27T03:38:54;4.20;99.90
19680;DHT22;9989;48.962;9.182;2022-11-27T03:55:33;4.00;99.90
19680;DHT22;9989;48.962;9.182;2022-11-27T03:58:08;4.00;99.90
19680;DHT22;9989;48.962;9.182;2022-11-27T04:00:39;3.90;99.90
19680;DHT22;9989;48.962;9.182;2022-11-27T04:03:09;3.90;99.90
19680;DHT22;9989;48.962;9.182;2022-11-27T04:05:35;3.90;99.90
19680;DHT22;9989;48.962;9.182;2022-11-27T04:08:01;3.80;99.90
19680;DHT22;9989;48.962;9.182;2022-11-27T04:10:27;3.80;99.90
19680;DHT22;9989;48.962;9.182;2022-11-27T04:12:53;3.90;99.90
19680;DHT22;9989;48.962;9.182;2022-11-27T04:15:19;3.80;99.90
19680;DHT22;9989;48.962;9.182;2022-11-27T04:17:44;3.80;99.90
19680;DHT22;9989;48.962;9.182;2022-11-27T04:20:12;3.80;99.90
19680;DHT22;9989;48.962;9.182;2022-11-27T04:22:38;3.70;99.90
19680;DHT22;9989;48.962;9.182;2022-11-27T04:25:04;3.70;99.90
19680;DHT22;9989;48.962;9.182;2022-11-27T04:27:29;3.70;99.90
19680;DHT22;9989;48.962;9.182;2022-11-27T04:29:55;3.80;99.90
19680;DHT22;9989;48.962;9.182;2022-11-27T04:32:21;3.80;99.90
19680;DHT22;9989;48.962;9.182;2022-11-27T04:34:46;3.70;99.90
19680;DHT22;9989;48.962;9.182;2022-11-27T04:37:12;3.70;99.90
19680;DHT22;9989;48.962;9.182;2022-11-27T04:39:37;3.70;99.90
19680;DHT22;9989;48.962;9.182;2022-11-27T04:42:03;3.70;99.90
19680;DHT22;9989;48.962;9.182;2022-11-27T04:44:29;3.70;99.90
19680;DHT22;9989;48.962;9.182;2022-11-27T04:46:54;3.80;99.90
19680;DHT22;9989;48.962;9.182;2022-11-27T04:49:20;3.80;99.90
19680;DHT22;9989;48.962;9.182;2022-11-27T04:51:45;3.80;99.90
19680;DHT22;9989;48.962;9.182;2022-11-27T04:54:11;3.80;99.90
19680;DHT22;9989;48.962;9.182;2022-11-27T04:56:37;3.80;99.90
19680;DHT22;9989;48.962;9.182;2022-11-27T04:59:03;3.70;99.90
19680;DHT22;9989;48.962;9.182;2022-11-27T05:01:29;3.70;99.90
19680;DHT22;9989;48.962;9.182;2022-11-27T05:03:54;3.70;99.90
19680;DHT22;9989;48.962;9.182;2022-11-27T05:06:20;3.70;99.90
19680;DHT22;9989;48.962;9.182;2022-11-27T05:08:47;3.60;99.90
19680;DHT22;9989;48.962;9.182;2022-11-27T05:11:14;3.70;99.90
19680;DHT22;9989;48.962;9.182;2022-11-27T05:13:40;3.70;99.90
19680;DHT22;9989;48.962;9.182;2022-11-27T05:16:07;3.70;99.90
19680;DHT22;9989;48.962;9.182;2022-11-27T05:18:32;3.70;99.90
19680;DHT22;9989;48.962;9.182;2022-11-27T05:21:00;3.70;99.90
19680;DHT22;9989;48.962;9.182;2022-11-27T05:23:27;3.70;99.90
19680;DHT22;9989;48.962;9.182;2022-11-27T05:25:53;3.70;99.90
19680;DHT22;9989;48.962;9.182;2022-11-27T05:28:20;3.70;99.90
19680;DHT22;9989;48.962;9.182;2022-11-27T05:30:46;3.70;99.90
19680;DHT22;9989;48.962;9.182;2022-11-27T05:33:12;3.70;99.90
19680;DHT22;9989;48.962;9.182;2022-11-27T05:35:38;3.70;99.90
19680;DHT22;9989;48.962;9.182;2022-11-27T05:38:05;3.70;99.90
19680;DHT22;9989;48.962;9.182;2022-11-27T05:40:30;3.60;99.90
19680;DHT22;9989;48.962;9.182;2022-11-27T05:42:56;3.60;99.90
19680;DHT22;9989;48.962;9.182;2022-11-27T05:45:22;3.50;99.90
19680;DHT22;9989;48.962;9.182;2022-11-27T05:47:47;3.50;99.90
19680;DHT22;9989;48.962;9.182;2022-11-27T05:50:13;3.50;99.90
19680;DHT22;9989;48.962;9.182;2022-11-27T05:52:39;3.50;99.90
19680;DHT22;9989;48.962;9.182;2022-11-27T05:55:05;3.50;99.90
19680;DHT22;9989;48.962;9.182;2022-11-27T05:57:30;3.50;99.90
19680;DHT22;9989;48.962;9.182;2022-11-27T05:59:57;3.40;99.90
19680;DHT22;9989;48.962;9.182;2022-11-27T06:02:25;3.40;99.90
19680;DHT22;9989;48.962;9.182;2022-11-27T06:04:51;3.30;99.90
19680;DHT22;9989;48.962;9.182;2022-11-27T06:07:17;3.30;99.90
19680;DHT22;9989;48.962;9.182;2022-11-27T06:09:43;3.20;99.90
19680;DHT22;9989;48.962;9.182;2022-11-27T06:12:08;3.20;99.90
19680;DHT22;9989;48.962;9.182;2022-11-27T06:14:34;3.20;99.90
19680;DHT22;9989;48.962;9.182;2022-11-27T06:17:00;3.20;99.90
19680;DHT22;9989;48.962;9.182;2022-11-27T06:19:27;3.20;99.90
19680;DHT22;9989;48.962;9.182;2022-11-27T06:21:53;3.20;99.90
19680;DHT22;9989;48.962;9.182;2022-11-27T06:24:19;3.30;99.90
19680;DHT22;9989;48.962;9.182;2022-11-27T06:26:44;3.30;99.90
19680;DHT22;9989;48.962;9.182;2022-11-27T06:29:10;3.30;99.90
19680;DHT22;9989;48.962;9.182;2022-11-27T06:31:36;3.30;99.90
19680;DHT22;9989;48.962;9.182;2022-11-27T06:34:03;3.30;99.90
19680;DHT22;9989;48.962;9.182;2022-11-27T06:36:36;3.30;99.90
19680;DHT22;9989;48.962;9.182;2022-11-27T06:39:04;3.30;99.90
19680;DHT22;9989;48.962;9.182;2022-11-27T06:41:30;3.30;99.90
19680;DHT22;9989;48.962;9.182;2022-11-27T06:43:57;3.30;99.90
19680;DHT22;9989;48.962;9.182;2022-11-27T06:46:23;3.30;99.90
19680;DHT22;9989;48.962;9.182;2022-11-27T06:48:51;3.30;99.90
19680;DHT22;9989;48.962;9.182;2022-11-27T06:51:20;3.30;99.90
19680;DHT22;9989;48.962;9.182;2022-11-27T06:53:46;3.30;99.90
19680;DHT22;9989;48.962;9.182;2022-11-27T06:56:13;3.30;99.90
19680;DHT22;9989;48.962;9.182;2022-11-27T06:58:39;3.20;99.90
19680;DHT22;9989;48.962;9.182;2022-11-27T07:01:11;3.20;99.90
19680;DHT22;9989;48.962;9.182;2022-11-27T07:03:37;3.20;99.90
19680;DHT22;9989;48.962;9.182;2022-11-27T07:06:05;3.20;99.90
19680;DHT22;9989;48.962;9.182;2022-11-27T07:08:33;3.20;99.90
19680;DHT22;9989;48.962;9.182;2022-11-27T07:11:23;3.20;99.90
19680;DHT22;9989;48.962;9.182;2022-11-27T07:13:50;3.20;99.90
19680;DHT22;9989;48.962;9.182;2022-11-27T07:16:16;3.20;99.90
19680;DHT22;9989;48.962;9.182;2022-11-27T07:18:53;3.30;99.90
19680;DHT22;9989;48.962;9.182;2022-11-27T07:21:20;3.30;99.90
19680;DHT22;9989;48.962;9.182;2022-11-27T07:23:46;3.30;99.90
19680;DHT22;9989;48.962;9.182;2022-11-27T07:26:13;3.30;99.90
19680;DHT22;9989;48.962;9.182;2022-11-27T07:28:39;3.40;99.90
19680;DHT22;9989;48.962;9.182;2022-11-27T07:31:08;3.40;99.90
19680;DHT22;9989;48.962;9.182;2022-11-27T07:33:34;3.40;99.90
19680;DHT22;9989;48.962;9.182;2022-11-27T07:36:03;3.40;99.90
19680;DHT22;9989;48.962;9.182;2022-11-27T07:38:29;3.50;99.90
19680;DHT22;9989;48.962;9.182;2022-11-27T07:40:58;3.70;99.90
19680;DHT22;9989;48.962;9.182;2022-11-27T07:43:24;4.00;99.90
19680;DHT22;9989;48.962;9.182;2022-11-27T07:45:50;4.60;99.90
19680;DHT22;9989;48.962;9.182;2022-11-27T07:48:15;5.30;99.90
19680;DHT22;9989;48.962;9.182;2022-11-27T07:50:41;6.20;99.90
19680;DHT22;9989;48.962;9.182;2022-11-27T07:53:06;6.70;99.90
19680;DHT22;9989;48.962;9.182;2022-11-27T07:55:32;7.00;99.90
19680;DHT22;9989;48.962;9.182;2022-11-27T07:57:57;7.20;99.90
19680;DHT22;9989;48.962;9.182;2022-11-27T08:00:23;7.40;99.90
19680;DHT22;9989;48.962;9.182;2022-11-27T08:02:49;8.00;99.90
19680;DHT22;9989;48.962;9.182;2022-11-27T08:05:14;9.00;99.90
19680;DHT22;9989;48.962;9.182;2022-11-27T08:07:40;9.80;99.90
19680;DHT22;9989;48.962;9.182;2022-11-27T08:10:06;10.40;99.90
19680;DHT22;9989;48.962;9.182;2022-11-27T08:12:32;10.90;99.90
19680;DHT22;9989;48.962;9.182;2022-11-27T08:14:57;11.30;99.90
19680;DHT22;9989;48.962;9.182;2022-11-27T08:17:23;12.10;99.90
19680;DHT22;9989;48.962;9.182;2022-11-27T08:19:49;13.10;99.90
19680;DHT22;9989;48.962;9.182;2022-11-27T08:22:15;14.00;98.50
19680;DHT22;9989;48.962;9.182;2022-11-27T08:24:44;15.00;95.30
19680;DHT22;9989;48.962;9.182;2022-11-27T08:27:10;16.20;91.70
19680;DHT22;9989;48.962;9.182;2022-11-27T08:29:37;17.50;86.00
19680;DHT22;9989;48.962;9.182;2022-11-27T08:32:04;18.70;78.10
19680;DHT22;9989;48.962;9.182;2022-11-27T08:34:30;19.70;71.50
19680;DHT22;9989;48.962;9.182;2022-11-27T08:36:58;20.70;65.90
19680;DHT22;9989;48.962;9.182;2022-11-27T08:39:23;21.60;61.50
19680;DHT22;9989;48.962;9.182;2022-11-27T08:41:51;22.30;58.50
19680;DHT22;9989;48.962;9.182;2022-11-27T08:44:17;23.10;56.10
19680;DHT22;9989;48.962;9.182;2022-11-27T08:46:43;23.80;53.80
19680;DHT22;9989;48.962;9.182;2022-11-27T08:49:08;24.30;50.90
19680;DHT22;9989;48.962;9.182;2022-11-27T08:51:35;25.00;50.00
19680;DHT22;9989;48.962;9.182;2022-11-27T08:54:01;25.50;48.20
19680;DHT22;9989;48.962;9.182;2022-11-27T08:56:26;26.20;47.30
19680;DHT22;9989;48.962;9.182;2022-11-27T08:58:52;26.60;46.10
19680;DHT22;9989;48.962;9.182;2022-11-27T09:01:27;27.10;44.70
19680;DHT22;9989;48.962;9.182;2022-11-27T09:03:53;27.70;43.90
19680;DHT22;9989;48.962;9.182;2022-11-27T09:06:21;28.30;42.90
19680;DHT22;9989;48.962;9.182;2022-11-27T09:08:47;28.70;41.60
19680;DHT22;9989;48.962;9.182;2022-11-27T09:11:15;28.60;40.20
19680;DHT22;9989;48.962;9.182;2022-11-27T09:13:41;27.50;40.20
19680;DHT22;9989;48.962;9.182;2022-11-27T09:16:12;25.60;42.20
19680;DHT22;9989;48.962;9.182;2022-11-27T09:18:39;23.70;44.90
19680;DHT22;9989;48.962;9.182;2022-11-27T09:21:09;22.00;47.60
19680;DHT22;9989;48.962;9.182;2022-11-27T09:23:36;20.40;50.40
19680;DHT22;9989;48.962;9.182;2022-11-27T09:26:07;19.40;53.00
19680;DHT22;9989;48.962;9.182;2022-11-27T09:28:33;18.90;54.90
19680;DHT22;9989;48.962;9.182;2022-11-27T09:31:01;18.60;55.90
19680;DHT22;9989;48.962;9.182;2022-11-27T09:33:28;18.10;57.50
19680;DHT22;9989;48.962;9.182;2022-11-27T09:35:54;17.60;58.20
19680;DHT22;9989;48.962;9.182;2022-11-27T09:38:20;17.10;59.60
19680;DHT22;9989;48.962;9.182;2022-11-27T09:40:49;16.70;61.00
19680;DHT22;9989;48.962;9.182;2022-11-27T09:43:15;16.30;62.50
19680;DHT22;9989;48.962;9.182;2022-11-27T09:45:46;16.30;63.50
19680;DHT22;9989;48.962;9.182;2022-11-27T09:48:28;16.80;63.70
19680;DHT22;9989;48.962;9.182;2022-11-27T09:51:00;17.50;60.70
19680;DHT22;9989;48.962;9.182;2022-11-27T09:56:16;18.60;60.50
19680;DHT22;9989;48.962;9.182;2022-11-27T09:58:49;19.30;58.00
19680;DHT22;9989;48.962;9.182;2022-11-27T10:01:26;19.10;57.50
19680;DHT22;9989;48.962;9.182;2022-11-27T10:03:54;18.60;58.00
19680;DHT22;9989;48.962;9.182;2022-11-27T10:17:14;15.50;66.10
19680;DHT22;9989;48.962;9.182;2022-11-27T10:23:04;15.60;69.50
19680;DHT22;9989;48.962;9.182;2022-11-27T10:25:43;17.10;67.20
19680;DHT22;9989;48.962;9.182;2022-11-27T10:31:37;20.60;58.50
19680;DHT22;9989;48.962;9.182;2022-11-27T10:37:00;24.40;51.70
19680;DHT22;9989;48.962;9.182;2022-11-27T10:39:39;25.90;48.50
19680;DHT22;9989;48.962;9.182;2022-11-27T10:42:13;26.50;46.50
19680;DHT22;9989;48.962;9.182;2022-11-27T10:44:54;26.40;45.30
19680;DHT22;9989;48.962;9.182;2022-11-27T10:47:24;26.40;46.00
19680;DHT22;9989;48.962;9.182;2022-11-27T10:49:51;26.60;44.00
19680;DHT22;9989;48.962;9.182;2022-11-27T10:52:18;26.30;44.00
19680;DHT22;9989;48.962;9.182;2022-11-27T10:54:48;26.60;44.50
19680;DHT22;9989;48.962;9.182;2022-11-27T11:02:37;27.60;42.30
19680;DHT22;9989;48.962;9.182;2022-11-27T11:08:14;28.50;41.60
19680;DHT22;9989;48.962;9.182;2022-11-27T11:10:59;29.30;40.90
19680;DHT22;9989;48.962;9.182;2022-11-27T11:13:44;30.40;40.20
19680;DHT22;9989;48.962;9.182;2022-11-27T11:18:47;32.00;38.00
19680;DHT22;9989;48.962;9.182;2022-11-27T11:21:27;32.10;37.50
19680;DHT22;9989;48.962;9.182;2022-11-27T11:24:10;31.80;37.60
19680;DHT22;9989;48.962;9.182;2022-11-27T11:26:45;31.50;36.90
19680;DHT22;9989;48.962;9.182;2022-11-27T11:29:33;31.30;36.90
19680;DHT22;9989;48.962;9.182;2022-11-27T11:32:42;31.20;36.50
19680;DHT22;9989;48.962;9.182;2022-11-27T11:35:25;31.20;36.70
19680;DHT22;9989;48.962;9.182;2022-11-27T11:37:52;31.50;36.50
19680;DHT22;9989;48.962;9.182;2022-11-27T11:40:22;31.60;36.40
19680;DHT22;9989;48.962;9.182;2022-11-27T11:42:59;31.60;35.90
19680;DHT22;9989;48.962;9.182;2022-11-27T11:45:26;31.70;36.70
19680;DHT22;9989;48.962;9.182;2022-11-27T11:47:58;31.70;35.70
19680;DHT22;9989;48.962;9.182;2022-11-27T11:56:32;31.30;37.00
19680;DHT22;9989;48.962;9.182;2022-11-27T12:04:06;29.80;38.20
19680;DHT22;9989;48.962;9.182;2022-11-27T12:06:46;28.60;39.40
19680;DHT22;9989;48.962;9.182;2022-11-27T12:12:02;25.20;43.10
19680;DHT22;9989;48.962;9.182;2022-11-27T12:14:40;23.90;45.50
19680;DHT22;9989;48.962;9.182;2022-11-27T12:23:14;24.10;47.60
19680;DHT22;9989;48.962;9.182;2022-11-27T12:36:33;28.40;41.40
19680;DHT22;9989;48.962;9.182;2022-11-27T12:42:08;28.50;40.60
19680;DHT22;9989;48.962;9.182;2022-11-27T12:47:32;27.00;42.00
19680;DHT22;9989;48.962;9.182;2022-11-27T12:50:08;26.00;43.50
19680;DHT22;9989;48.962;9.182;2022-11-27T12:52:38;25.00;44.30
19680;DHT22;9989;48.962;9.182;2022-11-27T12:55:16;24.00;46.00
19680;DHT22;9989;48.962;9.182;2022-11-27T12:58:08;22.80;48.10
19680;DHT22;9989;48.962;9.182;2022-11-27T13:00:35;22.10;49.50
19680;DHT22;9989;48.962;9.182;2022-11-27T13:03:15;21.50;50.50
19680;DHT22;9989;48.962;9.182;2022-11-27T13:05:47;20.90;51.80
19680;DHT22;9989;48.962;9.182;2022-11-27T13:08:19;20.30;53.40
19680;DHT22;9989;48.962;9.182;2022-11-27T13:10:53;20.00;54.60
19680;DHT22;9989;48.962;9.182;2022-11-27T13:15:51;19.70;55.80
19680;DHT22;9989;48.962;9.182;2022-11-27T13:20:47;19.00;56.60
19680;DHT22;9989;48.962;9.182;2022-11-27T13:23:14;18.70;57.50
19680;DHT22;9989;48.962;9.182;2022-11-27T13:25:48;18.40;57.70
19680;DHT22;9989;48.962;9.182;2022-11-27T13:29:04;18.30;58.30
19680;DHT22;9989;48.962;9.182;2022-11-27T13:31:25;18.40;58.80
19680;DHT22;9989;48.962;9.182;2022-11-27T13:33:58;18.40;58.60
19680;DHT22;9989;48.962;9.182;2022-11-27T13:36:31;18.40;58.40
19680;DHT22;9989;48.962;9.182;2022-11-27T13:38:59;18.30;58.50
19680;DHT22;9989;48.962;9.182;2022-11-27T13:41:37;18.20;58.50
19680;DHT22;9989;48.962;9.182;2022-11-27T13:44:22;18.10;58.40
19680;DHT22;9989;48.962;9.182;2022-11-27T13:46:50;17.80;58.60
19680;DHT22;9989;48.962;9.182;2022-11-27T13:49:27;17.60;60.00
19680;DHT22;9989;48.962;9.182;2022-11-27T13:52:11;17.20;60.00
19680;DHT22;9989;48.962;9.182;2022-11-27T13:54:39;16.80;61.10
19680;DHT22;9989;48.962;9.182;2022-11-27T13:57:16;16.50;62.10
19680;DHT22;9989;48.962;9.182;2022-11-27T14:00:10;16.00;64.00
19680;DHT22;9989;48.962;9.182;2022-11-27T14:02:48;15.40;65.60
19680;DHT22;9989;48.962;9.182;2022-11-27T14:05:19;14.90;67.10
19680;DHT22;9989;48.962;9.182;2022-11-27T14:07:48;14.60;68.40
19680;DHT22;9989;48.962;9.182;2022-11-27T14:10:19;14.40;69.30
19680;DHT22;9989;48.962;9.182;2022-11-27T14:15:32;14.00;71.80
19680;DHT22;9989;48.962;9.182;2022-11-27T14:18:18;13.90;72.60
19680;DHT22;9989;48.962;9.182;2022-11-27T14:20:53;13.70;72.90
19680;DHT22;9989;48.962;9.182;2022-11-27T14:26:01;13.40;74.60
19680;DHT22;9989;48.962;9.182;2022-11-27T14:28:27;13.30;75.60
19680;DHT22;9989;48.962;9.182;2022-11-27T14:30:57;13.20;76.40
19680;DHT22;9989;48.962;9.182;2022-11-27T14:33:31;13.10;76.80
19680;DHT22;9989;48.962;9.182;2022-11-27T14:36:00;13.00;77.40
19680;DHT22;9989;48.962;9.182;2022-11-27T14:38:28;12.90;78.10
19680;DHT22;9989;48.962;9.182;2022-11-27T14:41:07;12.80;79.10
19680;DHT22;9989;48.962;9.182;2022-11-27T14:43:33;12.70;79.80
19680;DHT22;9989;48.962;9.182;2022-11-27T14:45:59;12.60;80.50
19680;DHT22;9989;48.962;9.182;2022-11-27T14:48:47;12.50;81.20
19680;DHT22;9989;48.962;9.182;2022-11-27T14:51:18;12.40;81.40
19680;DHT22;9989;48.962;9.182;2022-11-27T14:53:46;12.40;80.60
19680;DHT22;9989;48.962;9.182;2022-11-27T14:56:13;12.20;79.60
19680;DHT22;9989;48.962;9.182;2022-11-27T14:58:46;12.10;79.00
19680;DHT22;9989;48.962;9.182;2022-11-27T15:01:26;12.00;78.70
19680;DHT22;9989;48.962;9.182;2022-11-27T15:04:22;11.90;79.10
19680;DHT22;9989;48.962;9.182;2022-11-27T15:06:48;11.80;78.70
19680;DHT22;9989;48.962;9.182;2022-11-27T15:09:18;11.70;78.00
19680;DHT22;9989;48.962;9.182;2022-11-27T15:11:44;11.60;77.80
19680;DHT22;9989;48.962;9.182;2022-11-27T15:14:15;11.50;77.30
19680;DHT22;9989;48.962;9.182;2022-11-27T15:16:45;11.40;77.50
19680;DHT22;9989;48.962;9.182;2022-11-27T15:19:20;11.40;78.00
19680;DHT22;9989;48.962;9.182;2022-11-27T15:21:48;11.30;77.80
19680;DHT22;9989;48.962;9.182;2022-11-27T15:24:31;11.20;78.10
19680;DHT22;9989;48.962;9.182;2022-11-27T15:32:22;11.00;79.20
19680;DHT22;9989;48.962;9.182;2022-11-27T15:34:49;11.00;79.30
19680;DHT22;9989;48.962;9.182;2022-11-27T15:37:29;10.90;80.00
19680;DHT22;9989;48.962;9.182;2022-11-27T15:39:57;10.90;80.70
19680;DHT22;9989;48.962;9.182;2022-11-27T15:42:23;10.90;81.10
19680;DHT22;9989;48.962;9.182;2022-11-27T15:44:55;10.90;82.20
19680;DHT22;9989;48.962;9.182;2022-11-27T15:47:29;10.80;82.80
19680;DHT22;9989;48.962;9.182;2022-11-27T15:49:56;10.80;83.20
19680;DHT22;9989;48.962;9.182;2022-11-27T15:52:23;10.80;83.70
19680;DHT22;9989;48.962;9.182;2022-11-27T15:54:49;10.80;83.50
19680;DHT22;9989;48.962;9.182;2022-11-27T15:57:15;10.70;84.20
19680;DHT22;9989;48.962;9.182;2022-11-27T15:59:41;10.70;84.30
19680;DHT22;9989;48.962;9.182;2022-11-27T16:02:09;10.70;83.90
19680;DHT22;9989;48.962;9.182;2022-11-27T16:04:35;10.70;83.90
19680;DHT22;9989;48.962;9.182;2022-11-27T16:07:00;10.70;83.40
19680;DHT22;9989;48.962;9.182;2022-11-27T16:09:26;10.70;83.40
19680;DHT22;9989;48.962;9.182;2022-11-27T16:11:52;10.60;82.80
19680;DHT22;9989;48.962;9.182;2022-11-27T16:14:17;10.60;82.50
19680;DHT22;9989;48.962;9.182;2022-11-27T16:16:43;10.50;82.40
19680;DHT22;9989;48.962;9.182;2022-11-27T16:19:09;10.50;82.80
19680;DHT22;9989;48.962;9.182;2022-11-27T16:21:37;10.50;83.40
19680;DHT22;9989;48.962;9.182;2022-11-27T16:24:04;10.50;84.10
19680;DHT22;9989;48.962;9.182;2022-11-27T16:26:31;10.50;84.60
19680;DHT22;9989;48.962;9.182;2022-11-27T16:28:57;10.40;84.20
19680;DHT22;9989;48.962;9.182;2022-11-27T16:31:23;10.40;84.50
19680;DHT22;9989;48.962;9.182;2022-11-27T16:33:49;10.40;84.20
19680;DHT22;9989;48.962;9.182;2022-11-27T16:36:16;10.30;83.90
19680;DHT22;9989;48.962;9.182;2022-11-27T16:38:42;10.30;83.80
19680;DHT22;9989;48.962;9.182;2022-11-27T16:41:11;10.30;83.50
19680;DHT22;9989;48.962;9.182;2022-11-27T16:43:42;10.20;83.90
19680;DHT22;9989;48.962;9.182;2022-11-27T16:46:14;10.20;84.20
19680;DHT22;9989;48.962;9.182;2022-11-27T16:48:42;10.20;84.30
19680;DHT22;9989;48.962;9.182;2022-11-27T16:51:11;10.10;84.40
19680;DHT22;9989;48.962;9.182;2022-11-27T16:53:39;10.10;84.70
19680;DHT22;9989;48.962;9.182;2022-11-27T16:56:06;10.10;85.00
19680;DHT22;9989;48.962;9.182;2022-11-27T16:58:33;10.00;84.90
19680;DHT22;9989;48.962;9.182;2022-11-27T17:00:59;10.00;84.80
19680;DHT22;9989;48.962;9.182;2022-11-27T17:03:25;10.00;85.10
19680;DHT22;9989;48.962;9.182;2022-11-27T17:05:50;9.90;85.40
19680;DHT22;9989;48.962;9.182;2022-11-27T17:08:16;9.90;85.40
19680;DHT22;9989;48.962;9.182;2022-11-27T17:10:42;9.80;85.60
19680;DHT22;9989;48.962;9.182;2022-11-27T17:13:09;9.80;85.60
19680;DHT22;9989;48.962;9.182;2022-11-27T17:15:35;9.60;85.60
19680;DHT22;9989;48.962;9.182;2022-11-27T17:18:00;9.60;85.90
19680;DHT22;9989;48.962;9.182;2022-11-27T17:20:27;9.50;86.20
19680;DHT22;9989;48.962;9.182;2022-11-27T17:22:52;9.50;87.10
19680;DHT22;9989;48.962;9.182;2022-11-27T17:25:18;9.50;87.60
19680;DHT22;9989;48.962;9.182;2022-11-27T17:27:43;9.40;87.60
19680;DHT22;9989;48.962;9.182;2022-11-27T17:30:09;9.40;87.70
19680;DHT22;9989;48.962;9.182;2022-11-27T17:32:35;9.40;88.10
19680;DHT22;9989;48.962;9.182;2022-11-27T17:35:00;9.40;88.50
19680;DHT22;9989;48.962;9.182;2022-11-27T17:37:27;9.30;89.20
19680;DHT22;9989;48.962;9.182;2022-11-27T17:39:52;9.40;89.80
19680;DHT22;9989;48.962;9.182;2022-11-27T17:42:18;9.40;90.10
19680;DHT22;9989;48.962;9.182;2022-11-27T17:44:43;9.40;89.90
19680;DHT22;9989;48.962;9.182;2022-11-27T17:47:10;9.40;90.10
19680;DHT22;9989;48.962;9.182;2022-11-27T17:49:35;9.40;90.10
19680;DHT22;9989;48.962;9.182;2022-11-27T17:52:01;9.30;90.10
19680;DHT22;9989;48.962;9.182;2022-11-27T17:54:26;9.30;90.10
19680;DHT22;9989;48.962;9.182;2022-11-27T17:56:52;9.20;90.20
19680;DHT22;9989;48.962;9.182;2022-11-27T17:59:18;9.20;90.50
19680;DHT22;9989;48.962;9.182;2022-11-27T18:01:44;9.10;90.70
19680;DHT22;9989;48.962;9.182;2022-11-27T18:04:12;9.10;91.10
19680;DHT22;9989;48.962;9.182;2022-11-27T18:06:38;9.00;91.10
19680;DHT22;9989;48.962;9.182;2022-11-27T18:09:04;9.00;91.30
19680;DHT22;9989;48.962;9.182;2022-11-27T18:11:32;9.00;91.30
19680;DHT22;9989;48.962;9.182;2022-11-27T18:14:01;9.00;91.40